Agios Nikolaos — SW2035 — position and weather

sailwx.info

Track history (hours):
 
Tides and Currents Weather Stations Pressure Air Temp Water Temp Dewpoint Dewpoint Depression Visibility Wind Speed Wind Dir Waves Ship Positions

Agios Nikolaos

Last reported at 2017-Nov-30 15:05 UTC. Time now 2017-Dec-13 07:16 UTC.
Position N 37°55' E 023°01'.
Warning: this ship's position is 12 days out of date.

Length 16 m; draft 1.6 m.

Type: Fishing. MMSI: 237554000.

Date/timePositionNaut miles runAvg speedWind from/ knotsBaromVisibWave heightAir tempDewpointWater temp
2017-Nov-30 15:05N 37°55' E 023°01'0 0.0
2017-Nov-30 15:00N 37°55' E 023°01'0 0.0
2017-Nov-30 14:30N 37°55' E 023°01'0 0.0
2017-Nov-30 13:37N 37°55' E 023°01'0 0.0
2017-Nov-30 13:30N 37°55' E 023°01'0 0.0
2017-Nov-30 13:00N 37°55' E 023°01'0 0.0
2017-Nov-30 12:30N 37°55' E 023°01'0 0.0
2017-Nov-30 12:00N 37°55' E 023°01'2 3.3
2017-Nov-30 11:30N 37°54' E 023°03'5 7.9
2017-Nov-30 10:50N 37°51' E 023°08'3 7.8
2017-Nov-30 10:30N 37°49' E 023°10'0 0.2
2017-Nov-30 10:00N 37°49' E 023°10'1 1.0
2017-Nov-30 09:30N 37°50' E 023°10'  
Track history (hours):
 
Tides and Currents Weather Stations Pressure Air Temp Water Temp Dewpoint Dewpoint Depression Visibility Wind Speed Wind Dir Waves Ship Positions

Agios Nikolaos

Last reported at 2017-Nov-30 15:05 UTC. Time now 2017-Dec-13 07:16 UTC.
Position N 37°55' E 023°01'.
Warning: this ship's position is 12 days out of date.

Length 16 m; draft 1.6 m.

Type: Fishing. MMSI: 237554000.

Date/timePositionNaut miles runAvg speedWind from/ knotsBaromVisibWave heightAir tempDewpointWater temp
2017-Nov-30 15:05N 37°55' E 023°01'0 0.0
2017-Nov-30 15:00N 37°55' E 023°01'0 0.0
2017-Nov-30 14:30N 37°55' E 023°01'0 0.0
2017-Nov-30 13:37N 37°55' E 023°01'0 0.0
2017-Nov-30 13:30N 37°55' E 023°01'0 0.0
2017-Nov-30 13:00N 37°55' E 023°01'0 0.0
2017-Nov-30 12:30N 37°55' E 023°01'0 0.0
2017-Nov-30 12:00N 37°55' E 023°01'2 3.3
2017-Nov-30 11:30N 37°54' E 023°03'5 7.9
2017-Nov-30 10:50N 37°51' E 023°08'3 7.8
2017-Nov-30 10:30N 37°49' E 023°10'0 0.2
2017-Nov-30 10:00N 37°49' E 023°10'1 1.0
2017-Nov-30 09:30N 37°50' E 023°10'  

Dump ship's entire track history